No particular awareness of the weather is required.    There are no Weather-warnings


Meteo18 Weather Cam more information Meteo18 Weather Cam


Thunder radar more information blitzortung!


Rain radar more information rain snow radar


Visit our other weather sites:

Template documentation
and downloads

And another site



Weather Underground History page Text

Daily Summary for March 1, 2017 Units:  Both    English   Metric
« Previous Day
Next Day »
Daily Weekly Monthly Yearly Custom
  High: Low: Average:
Temperature: 51.4 °F /  10.8 °C 42.4 °F /  5.8 °C 46.2 °F /  7.9 °C
Dew Point: 49.5 °F /  9.7 °C 38.5 °F /  3.6 °C 43.9 °F /  6.6 °C
Humidity: 96 % 84 % 92 %
Wind Speed: 30 mph /  48.3 km/h - 11.3 mph /  18.2 km/h
Wind Gust: 31 mph /  49.9 km/h - -
Wind:- - SW
Pressure: 29.9 in /  1011.4 hPa 29.7 in /  1007.0 hPa -
Precipitation: 0.54 in /  13.7 mm    
Historical Graphs
 
 
Tabular Data for March 1, 2017
Time Temperature Dew Point Pressure Wind Wind Speed Wind Gust Humidity Rainfall Rate (Hourly)
00:02 42.4 °F /  5.8 °C 38.5 °F /  3.6 °C 29.7 in /  1007.3 hPa SW 13 mph /  20.9 km/h 23 mph /  37.0 km/h 86 % 0.01 in /  0.3 mm
00:12 43 °F /  6.1 °C 38.8 °F /  3.8 °C 29.7 in /  1007.0 hPa SSW 13 mph /  20.9 km/h 23 mph /  37.0 km/h 85 % 0.01 in /  0.3 mm
00:17 43 °F /  6.1 °C 38.5 °F /  3.6 °C 29.7 in /  1007.3 hPa West 23 mph /  37.0 km/h 23 mph /  37.0 km/h 84 % 0.01 in /  0.3 mm
00:22 43.2 °F /  6.2 °C 38.7 °F /  3.7 °C 29.7 in /  1007.0 hPa WSW 13 mph /  20.9 km/h 22 mph /  35.4 km/h 84 % 0.01 in /  0.3 mm
00:32 43.2 °F /  6.2 °C 38.7 °F /  3.7 °C 29.7 in /  1007.3 hPa West 16 mph /  25.7 km/h 23 mph /  37.0 km/h 84 % 0.01 in /  0.3 mm
00:37 43.3 °F /  6.3 °C 38.8 °F /  3.8 °C 29.7 in /  1007.3 hPa West 24 mph /  38.6 km/h 28 mph /  45.1 km/h 84 % 0.01 in /  0.3 mm
00:42 43.3 °F /  6.3 °C 38.8 °F /  3.8 °C 29.7 in /  1007.3 hPa WSW 12 mph /  19.3 km/h 28 mph /  45.1 km/h 84 % 0.01 in /  0.3 mm
00:52 43.3 °F /  6.3 °C 39.2 °F /  4.0 °C 29.7 in /  1007.3 hPa WSW 14 mph /  22.5 km/h 28 mph /  45.1 km/h 85 % 0 in /  0.0 mm
00:57 43.2 °F /  6.2 °C 39 °F /  3.9 °C 29.7 in /  1007.3 hPa SW 11 mph /  17.7 km/h 28 mph /  45.1 km/h 85 % 0 in /  0.0 mm
01:02 43.2 °F /  6.2 °C 39.2 °F /  4.0 °C 29.7 in /  1007.3 hPa WSW 13 mph /  20.9 km/h 28 mph /  45.1 km/h 86 % 0 in /  0.0 mm
01:12 43.2 °F /  6.2 °C 39.2 °F /  4.0 °C 29.8 in /  1008.0 hPa West 11 mph /  17.7 km/h 26 mph /  41.8 km/h 86 % 0 in /  0.0 mm
01:17 43.2 °F /  6.2 °C 39.2 °F /  4.0 °C 29.8 in /  1008.0 hPa WNW 11 mph /  17.7 km/h 22 mph /  35.4 km/h 86 % 0 in /  0.0 mm
01:22 43.2 °F /  6.2 °C 39.2 °F /  4.0 °C 29.8 in /  1008.4 hPa West 15 mph /  24.1 km/h 22 mph /  35.4 km/h 86 % 0 in /  0.0 mm
01:27 43.2 °F /  6.2 °C 39.2 °F /  4.0 °C 29.8 in /  1008.4 hPa SSW 4 mph /  6.4 km/h 20 mph /  32.2 km/h 86 % 0 in /  0.0 mm
01:32 43.2 °F /  6.2 °C 39.6 °F /  4.2 °C 29.8 in /  1008.4 hPa WSW 15 mph /  24.1 km/h 20 mph /  32.2 km/h 87 % 0 in /  0.0 mm
01:37 43 °F /  6.1 °C 39.4 °F /  4.1 °C 29.8 in /  1008.4 hPa SW 21 mph /  33.8 km/h 21 mph /  33.8 km/h 87 % 0 in /  0.0 mm
01:42 43.2 °F /  6.2 °C 39.2 °F /  4.0 °C 29.8 in /  1008.4 hPa SW 6 mph /  9.7 km/h 19 mph /  30.6 km/h 86 % 0 in /  0.0 mm
01:47 43.2 °F /  6.2 °C 39.6 °F /  4.2 °C 29.8 in /  1008.4 hPa WSW 12 mph /  19.3 km/h 26 mph /  41.8 km/h 87 % 0 in /  0.0 mm
01:52 43.2 °F /  6.2 °C 39.6 °F /  4.2 °C 29.8 in /  1008.4 hPa SW 11 mph /  17.7 km/h 26 mph /  41.8 km/h 87 % 0 in /  0.0 mm
01:57 43.2 °F /  6.2 °C 39.6 °F /  4.2 °C 29.8 in /  1008.4 hPa WSW 12 mph /  19.3 km/h 26 mph /  41.8 km/h 87 % 0 in /  0.0 mm
02:02 43.2 °F /  6.2 °C 39.6 °F /  4.2 °C 29.8 in /  1008.4 hPa West 5 mph /  8.0 km/h 26 mph /  41.8 km/h 87 % 0 in /  0.0 mm
02:07 43.2 °F /  6.2 °C 39.6 °F /  4.2 °C 29.8 in /  1008.4 hPa West 8 mph /  12.9 km/h 17 mph /  27.4 km/h 87 % 0 in /  0.0 mm
02:12 43.2 °F /  6.2 °C 39.6 °F /  4.2 °C 29.8 in /  1008.7 hPa West 7 mph /  11.3 km/h 17 mph /  27.4 km/h 87 % 0 in /  0.0 mm
02:17 43.2 °F /  6.2 °C 39.9 °F /  4.4 °C 29.8 in /  1008.4 hPa West 9 mph /  14.5 km/h 17 mph /  27.4 km/h 88 % 0 in /  0.0 mm
02:22 43.3 °F /  6.3 °C 40.1 °F /  4.5 °C 29.8 in /  1008.4 hPa West 8 mph /  12.9 km/h 17 mph /  27.4 km/h 88 % 0 in /  0.0 mm
02:27 43.3 °F /  6.3 °C 40.1 °F /  4.5 °C 29.8 in /  1008.4 hPa WSW 8 mph /  12.9 km/h 21 mph /  33.8 km/h 88 % 0 in /  0.0 mm
02:32 43.3 °F /  6.3 °C 40.1 °F /  4.5 °C 29.8 in /  1008.7 hPa WSW 11 mph /  17.7 km/h 20 mph /  32.2 km/h 88 % 0 in /  0.0 mm
02:37 43.2 °F /  6.2 °C 39.9 °F /  4.4 °C 29.8 in /  1008.7 hPa SW 12 mph /  19.3 km/h 20 mph /  32.2 km/h 88 % 0 in /  0.0 mm
02:42 43.3 °F /  6.3 °C 40.1 °F /  4.5 °C 29.8 in /  1008.7 hPa SW 13 mph /  20.9 km/h 19 mph /  30.6 km/h 88 % 0 in /  0.0 mm
02:47 43.2 °F /  6.2 °C 40.1 °F /  4.5 °C 29.8 in /  1008.7 hPa West 15 mph /  24.1 km/h 20 mph /  32.2 km/h 89 % 0 in /  0.0 mm
02:52 43.2 °F /  6.2 °C 40.1 °F /  4.5 °C 29.8 in /  1008.7 hPa SW 6 mph /  9.7 km/h 22 mph /  35.4 km/h 89 % 0 in /  0.0 mm
02:57 43 °F /  6.1 °C 40.3 °F /  4.6 °C 29.8 in /  1008.7 hPa West 14 mph /  22.5 km/h 22 mph /  35.4 km/h 90 % 0 in /  0.0 mm
03:02 43 °F /  6.1 °C 40.3 °F /  4.6 °C 29.8 in /  1008.7 hPa West 5 mph /  8.0 km/h 22 mph /  35.4 km/h 90 % 0 in /  0.0 mm
03:12 43 °F /  6.1 °C 40.3 °F /  4.6 °C 29.8 in /  1008.7 hPa WSW 7 mph /  11.3 km/h 22 mph /  35.4 km/h 90 % 0 in /  0.0 mm
03:17 43 °F /  6.1 °C 40.3 °F /  4.6 °C 29.8 in /  1008.7 hPa WSW 12 mph /  19.3 km/h 22 mph /  35.4 km/h 90 % 0 in /  0.0 mm
03:22 43.2 °F /  6.2 °C 40.1 °F /  4.5 °C 29.8 in /  1008.7 hPa West 9 mph /  14.5 km/h 20 mph /  32.2 km/h 89 % 0 in /  0.0 mm
03:32 43.2 °F /  6.2 °C 40.1 °F /  4.5 °C 29.8 in /  1009.0 hPa West 10 mph /  16.1 km/h 21 mph /  33.8 km/h 89 % 0 in /  0.0 mm
03:42 43.3 °F /  6.3 °C 40.3 °F /  4.6 °C 29.8 in /  1009.0 hPa West 8 mph /  12.9 km/h 18 mph /  29.0 km/h 89 % 0 in /  0.0 mm
03:52 43.3 °F /  6.3 °C 40.3 °F /  4.6 °C 29.8 in /  1009.0 hPa WSW 9 mph /  14.5 km/h 16 mph /  25.7 km/h 89 % 0 in /  0.0 mm
03:57 43.3 °F /  6.3 °C 40.3 °F /  4.6 °C 29.8 in /  1009.0 hPa SSW 6 mph /  9.7 km/h 19 mph /  30.6 km/h 89 % 0 in /  0.0 mm
04:02 43.3 °F /  6.3 °C 40.3 °F /  4.6 °C 29.8 in /  1009.0 hPa West 14 mph /  22.5 km/h 19 mph /  30.6 km/h 89 % 0 in /  0.0 mm
04:12 43.5 °F /  6.4 °C 40.5 °F /  4.7 °C 29.8 in /  1009.0 hPa SW 12 mph /  19.3 km/h 22 mph /  35.4 km/h 89 % 0 in /  0.0 mm
04:17 43.5 °F /  6.4 °C 40.5 °F /  4.7 °C 29.8 in /  1009.0 hPa WSW 10 mph /  16.1 km/h 22 mph /  35.4 km/h 89 % 0 in /  0.0 mm
04:22 43.7 °F /  6.5 °C 40.6 °F /  4.8 °C 29.8 in /  1009.0 hPa West 8 mph /  12.9 km/h 21 mph /  33.8 km/h 89 % 0 in /  0.0 mm
04:32 43.7 °F /  6.5 °C 40.5 °F /  4.7 °C 29.8 in /  1009.0 hPa WSW 12 mph /  19.3 km/h 21 mph /  33.8 km/h 88 % 0 in /  0.0 mm
04:42 43.5 °F /  6.4 °C 40.5 °F /  4.7 °C 29.8 in /  1009.4 hPa SW 10 mph /  16.1 km/h 20 mph /  32.2 km/h 89 % 0 in /  0.0 mm
04:47 43.5 °F /  6.4 °C 40.5 °F /  4.7 °C 29.8 in /  1009.4 hPa SW 15 mph /  24.1 km/h 22 mph /  35.4 km/h 89 % 0 in /  0.0 mm
04:52 43.3 °F /  6.3 °C 40.6 °F /  4.8 °C 29.8 in /  1009.4 hPa WSW 18 mph /  29.0 km/h 22 mph /  35.4 km/h 90 % 0 in /  0.0 mm
04:57 43.3 °F /  6.3 °C 40.6 °F /  4.8 °C 29.8 in /  1009.4 hPa SW 11 mph /  17.7 km/h 21 mph /  33.8 km/h 90 % 0 in /  0.0 mm
05:02 43.2 °F /  6.2 °C 40.6 °F /  4.8 °C 29.8 in /  1009.4 hPa West 5 mph /  8.0 km/h 21 mph /  33.8 km/h 91 % 0 in /  0.0 mm
05:12 43.2 °F /  6.2 °C 40.6 °F /  4.8 °C 29.8 in /  1009.7 hPa WSW 13 mph /  20.9 km/h 21 mph /  33.8 km/h 91 % 0 in /  0.0 mm
05:17 43.2 °F /  6.2 °C 40.6 °F /  4.8 °C 29.8 in /  1009.7 hPa SW 13 mph /  20.9 km/h 17 mph /  27.4 km/h 91 % 0 in /  0.0 mm
05:22 43.2 °F /  6.2 °C 40.6 °F /  4.8 °C 29.8 in /  1010.0 hPa WSW 12 mph /  19.3 km/h 19 mph /  30.6 km/h 91 % 0 in /  0.0 mm
05:32 43.2 °F /  6.2 °C 41 °F /  5.0 °C 29.8 in /  1010.0 hPa WSW 13 mph /  20.9 km/h 24 mph /  38.6 km/h 92 % 0 in /  0.0 mm
05:37 43.2 °F /  6.2 °C 41 °F /  5.0 °C 29.8 in /  1010.0 hPa WSW 18 mph /  29.0 km/h 18 mph /  29.0 km/h 92 % 0 in /  0.0 mm
05:42 43.2 °F /  6.2 °C 41 °F /  5.0 °C 29.8 in /  1010.0 hPa SW 4 mph /  6.4 km/h 17 mph /  27.4 km/h 92 % 0 in /  0.0 mm
05:47 43.2 °F /  6.2 °C 41 °F /  5.0 °C 29.8 in /  1010.0 hPa WSW 15 mph /  24.1 km/h 18 mph /  29.0 km/h 92 % 0 in /  0.0 mm
05:52 43.2 °F /  6.2 °C 41 °F /  5.0 °C 29.8 in /  1010.0 hPa WSW 8 mph /  12.9 km/h 18 mph /  29.0 km/h 92 % 0 in /  0.0 mm
05:57 43.3 °F /  6.3 °C 41.2 °F /  5.1 °C 29.8 in /  1010.0 hPa SW 6 mph /  9.7 km/h 18 mph /  29.0 km/h 92 % 0 in /  0.0 mm
06:02 43.3 °F /  6.3 °C 40.8 °F /  4.9 °C 29.8 in /  1010.0 hPa WSW 10 mph /  16.1 km/h 18 mph /  29.0 km/h 91 % 0 in /  0.0 mm
06:12 43.3 °F /  6.3 °C 41.2 °F /  5.1 °C 29.8 in /  1010.0 hPa West 10 mph /  16.1 km/h 18 mph /  29.0 km/h 92 % 0 in /  0.0 mm
06:17 43.3 °F /  6.3 °C 41.2 °F /  5.1 °C 29.8 in /  1010.0 hPa WSW 8 mph /  12.9 km/h 19 mph /  30.6 km/h 92 % 0 in /  0.0 mm
06:22 43.3 °F /  6.3 °C 41.2 °F /  5.1 °C 29.8 in /  1010.0 hPa SW 9 mph /  14.5 km/h 19 mph /  30.6 km/h 92 % 0 in /  0.0 mm
06:27 43.3 °F /  6.3 °C 41.2 °F /  5.1 °C 29.8 in /  1010.0 hPa SW 4 mph /  6.4 km/h 19 mph /  30.6 km/h 92 % 0 in /  0.0 mm
06:32 43.3 °F /  6.3 °C 41.2 °F /  5.1 °C 29.8 in /  1010.4 hPa West 6 mph /  9.7 km/h 19 mph /  30.6 km/h 92 % 0 in /  0.0 mm
06:37 43.3 °F /  6.3 °C 41.2 °F /  5.1 °C 29.8 in /  1010.4 hPa SW 7 mph /  11.3 km/h 19 mph /  30.6 km/h 92 % 0 in /  0.0 mm
06:42 43.3 °F /  6.3 °C 41.2 °F /  5.1 °C 29.8 in /  1010.4 hPa WSW 10 mph /  16.1 km/h 16 mph /  25.7 km/h 92 % 0 in /  0.0 mm
06:47 43.3 °F /  6.3 °C 41.2 °F /  5.1 °C 29.8 in /  1010.4 hPa SSW 11 mph /  17.7 km/h 16 mph /  25.7 km/h 92 % 0 in /  0.0 mm
06:52 43.3 °F /  6.3 °C 41.2 °F /  5.1 °C 29.8 in /  1010.4 hPa SW 10 mph /  16.1 km/h 16 mph /  25.7 km/h 92 % 0 in /  0.0 mm
06:57 43.3 °F /  6.3 °C 41.5 °F /  5.3 °C 29.8 in /  1010.4 hPa WSW 12 mph /  19.3 km/h 17 mph /  27.4 km/h 93 % 0 in /  0.0 mm
07:02 43.2 °F /  6.2 °C 41.4 °F /  5.2 °C 29.8 in /  1010.4 hPa SSW 4 mph /  6.4 km/h 17 mph /  27.4 km/h 93 % 0 in /  0.0 mm
07:07 43.2 °F /  6.2 °C 41.4 °F /  5.2 °C 29.8 in /  1010.4 hPa WSW 7 mph /  11.3 km/h 17 mph /  27.4 km/h 93 % 0.01 in /  0.3 mm
07:12 43.2 °F /  6.2 °C 41.4 °F /  5.2 °C 29.8 in /  1010.4 hPa WSW 8 mph /  12.9 km/h 17 mph /  27.4 km/h 93 % 0.01 in /  0.3 mm
07:17 43.2 °F /  6.2 °C 41.5 °F /  5.3 °C 29.8 in /  1010.4 hPa WSW 6 mph /  9.7 km/h 14 mph /  22.5 km/h 94 % 0.01 in /  0.3 mm
07:27 43.2 °F /  6.2 °C 41.5 °F /  5.3 °C 29.8 in /  1010.4 hPa WSW 7 mph /  11.3 km/h 14 mph /  22.5 km/h 94 % 0.02 in /  0.5 mm
07:32 43.2 °F /  6.2 °C 41.5 °F /  5.3 °C 29.8 in /  1010.4 hPa SW 4 mph /  6.4 km/h 14 mph /  22.5 km/h 94 % 0.02 in /  0.5 mm
07:37 43.2 °F /  6.2 °C 41.5 °F /  5.3 °C 29.8 in /  1010.4 hPa WSW 8 mph /  12.9 km/h 14 mph /  22.5 km/h 94 % 0.03 in /  0.8 mm
07:42 43.2 °F /  6.2 °C 41.9 °F /  5.5 °C 29.8 in /  1010.4 hPa SW 8 mph /  12.9 km/h 14 mph /  22.5 km/h 95 % 0.03 in /  0.8 mm
07:47 43.2 °F /  6.2 °C 41.5 °F /  5.3 °C 29.8 in /  1010.7 hPa SW 10 mph /  16.1 km/h 15 mph /  24.1 km/h 94 % 0.03 in /  0.8 mm
07:57 43.3 °F /  6.3 °C 41.7 °F /  5.4 °C 29.8 in /  1010.7 hPa SSW 6 mph /  9.7 km/h 13 mph /  20.9 km/h 94 % 0.03 in /  0.8 mm
08:02 43.3 °F /  6.3 °C 41.7 °F /  5.4 °C 29.8 in /  1010.7 hPa SW 4 mph /  6.4 km/h 13 mph /  20.9 km/h 94 % 0.03 in /  0.8 mm
08:07 43.3 °F /  6.3 °C 41.7 °F /  5.4 °C 29.8 in /  1010.7 hPa SW 5 mph /  8.0 km/h 13 mph /  20.9 km/h 94 % 0.02 in /  0.5 mm
08:12 43.3 °F /  6.3 °C 41.7 °F /  5.4 °C 29.8 in /  1010.7 hPa SW 7 mph /  11.3 km/h 13 mph /  20.9 km/h 94 % 0.02 in /  0.5 mm
08:17 43.5 °F /  6.4 °C 41.7 °F /  5.4 °C 29.9 in /  1011.1 hPa West 5 mph /  8.0 km/h 15 mph /  24.1 km/h 93 % 0.02 in /  0.5 mm
08:22 43.5 °F /  6.4 °C 41.7 °F /  5.4 °C 29.9 in /  1011.1 hPa WSW 10 mph /  16.1 km/h 15 mph /  24.1 km/h 93 % 0.02 in /  0.5 mm
08:32 43.7 °F /  6.5 °C 41.7 °F /  5.4 °C 29.9 in /  1011.1 hPa SW 4 mph /  6.4 km/h 15 mph /  24.1 km/h 93 % 0.02 in /  0.5 mm
08:37 43.9 °F /  6.6 °C 41.9 °F /  5.5 °C 29.9 in /  1011.1 hPa SW 9 mph /  14.5 km/h 16 mph /  25.7 km/h 93 % 0.01 in /  0.3 mm
08:42 43.9 °F /  6.6 °C 41.7 °F /  5.4 °C 29.9 in /  1011.1 hPa WSW 9 mph /  14.5 km/h 16 mph /  25.7 km/h 92 % 0.01 in /  0.3 mm
08:47 44.1 °F /  6.7 °C 41.9 °F /  5.5 °C 29.9 in /  1011.1 hPa WSW 9 mph /  14.5 km/h 15 mph /  24.1 km/h 92 % 0.01 in /  0.3 mm
08:57 44.2 °F /  6.8 °C 42.1 °F /  5.6 °C 29.9 in /  1011.1 hPa WSW 12 mph /  19.3 km/h 16 mph /  25.7 km/h 92 % 0.01 in /  0.3 mm
09:02 44.2 °F /  6.8 °C 41.7 °F /  5.4 °C 29.9 in /  1011.1 hPa SW 8 mph /  12.9 km/h 16 mph /  25.7 km/h 91 % 0.01 in /  0.3 mm
09:07 44.4 °F /  6.9 °C 41.9 °F /  5.5 °C 29.9 in /  1011.1 hPa SSW 7 mph /  11.3 km/h 19 mph /  30.6 km/h 91 % 0.01 in /  0.3 mm
09:12 44.4 °F /  6.9 °C 41.9 °F /  5.5 °C 29.9 in /  1011.1 hPa SW 7 mph /  11.3 km/h 19 mph /  30.6 km/h 91 % 0.01 in /  0.3 mm
09:17 44.6 °F /  7.0 °C 42.1 °F /  5.6 °C 29.9 in /  1011.1 hPa WSW 10 mph /  16.1 km/h 19 mph /  30.6 km/h 91 % 0.01 in /  0.3 mm
09:27 44.8 °F /  7.1 °C 42.3 °F /  5.7 °C 29.9 in /  1011.1 hPa SW 14 mph /  22.5 km/h 15 mph /  24.1 km/h 91 % 0 in /  0.0 mm
09:32 44.8 °F /  7.1 °C 42.3 °F /  5.7 °C 29.9 in /  1011.1 hPa SW 11 mph /  17.7 km/h 15 mph /  24.1 km/h 91 % 0 in /  0.0 mm
09:37 44.8 °F /  7.1 °C 42.3 °F /  5.7 °C 29.9 in /  1011.4 hPa SSW 9 mph /  14.5 km/h 17 mph /  27.4 km/h 91 % 0 in /  0.0 mm
09:42 44.8 °F /  7.1 °C 42.3 °F /  5.7 °C 29.9 in /  1011.4 hPa WSW 4 mph /  6.4 km/h 17 mph /  27.4 km/h 91 % 0 in /  0.0 mm
09:47 44.6 °F /  7.0 °C 42.1 °F /  5.6 °C 29.9 in /  1011.4 hPa SW 5 mph /  8.0 km/h 14 mph /  22.5 km/h 91 % 0.01 in /  0.3 mm
09:52 44.6 °F /  7.0 °C 42.4 °F /  5.8 °C 29.9 in /  1011.4 hPa West 4 mph /  6.4 km/h 14 mph /  22.5 km/h 92 % 0.01 in /  0.3 mm
09:57 44.6 °F /  7.0 °C 42.4 °F /  5.8 °C 29.9 in /  1011.1 hPa SW 7 mph /  11.3 km/h 14 mph /  22.5 km/h 92 % 0.02 in /  0.5 mm
10:02 44.8 °F /  7.1 °C 42.6 °F /  5.9 °C 29.9 in /  1011.1 hPa SW 11 mph /  17.7 km/h 14 mph /  22.5 km/h 92 % 0.02 in /  0.5 mm
10:07 44.8 °F /  7.1 °C 42.6 °F /  5.9 °C 29.9 in /  1011.1 hPa SW 7 mph /  11.3 km/h 16 mph /  25.7 km/h 92 % 0.02 in /  0.5 mm
10:12 44.8 °F /  7.1 °C 42.6 °F /  5.9 °C 29.9 in /  1011.1 hPa SW 6 mph /  9.7 km/h 16 mph /  25.7 km/h 92 % 0.03 in /  0.8 mm
10:17 45 °F /  7.2 °C 42.8 °F /  6.0 °C 29.9 in /  1011.1 hPa WSW 9 mph /  14.5 km/h 16 mph /  25.7 km/h 92 % 0.03 in /  0.8 mm
10:22 45 °F /  7.2 °C 42.8 °F /  6.0 °C 29.9 in /  1011.4 hPa WSW 9 mph /  14.5 km/h 16 mph /  25.7 km/h 92 % 0.03 in /  0.8 mm
10:32 45 °F /  7.2 °C 42.8 °F /  6.0 °C 29.9 in /  1011.1 hPa WSW 11 mph /  17.7 km/h 20 mph /  32.2 km/h 92 % 0.04 in /  1.0 mm
10:37 45.1 °F /  7.3 °C 43 °F /  6.1 °C 29.9 in /  1011.4 hPa West 11 mph /  17.7 km/h 20 mph /  32.2 km/h 92 % 0.04 in /  1.0 mm
10:42 45.1 °F /  7.3 °C 43 °F /  6.1 °C 29.9 in /  1011.4 hPa WSW 13 mph /  20.9 km/h 20 mph /  32.2 km/h 92 % 0.03 in /  0.8 mm
10:47 45.1 °F /  7.3 °C 41.7 °F /  5.4 °C 29.9 in /  1011.4 hPa SW 18 mph /  29.0 km/h 22 mph /  35.4 km/h 88 % 0.03 in /  0.8 mm
10:52 45.1 °F /  7.3 °C 41.5 °F /  5.3 °C 29.9 in /  1011.4 hPa SSW 10 mph /  16.1 km/h 23 mph /  37.0 km/h 87 % 0.02 in /  0.5 mm
10:57 45.1 °F /  7.3 °C 41.7 °F /  5.4 °C 29.9 in /  1011.4 hPa WSW 11 mph /  17.7 km/h 23 mph /  37.0 km/h 88 % 0.03 in /  0.8 mm
11:02 45.1 °F /  7.3 °C 41.7 °F /  5.4 °C 29.9 in /  1011.4 hPa WSW 17 mph /  27.4 km/h 23 mph /  37.0 km/h 88 % 0.02 in /  0.5 mm
11:07 45.1 °F /  7.3 °C 41.5 °F /  5.3 °C 29.9 in /  1011.4 hPa WSW 13 mph /  20.9 km/h 21 mph /  33.8 km/h 87 % 0.02 in /  0.5 mm
11:12 45.1 °F /  7.3 °C 41.5 °F /  5.3 °C 29.9 in /  1011.4 hPa SW 8 mph /  12.9 km/h 20 mph /  32.2 km/h 87 % 0.02 in /  0.5 mm
11:17 45.1 °F /  7.3 °C 41.5 °F /  5.3 °C 29.9 in /  1011.1 hPa SW 8 mph /  12.9 km/h 20 mph /  32.2 km/h 87 % 0.02 in /  0.5 mm
11:22 45.3 °F /  7.4 °C 41.9 °F /  5.5 °C 29.9 in /  1011.1 hPa SW 15 mph /  24.1 km/h 17 mph /  27.4 km/h 88 % 0.02 in /  0.5 mm
11:27 45.5 °F /  7.5 °C 42.1 °F /  5.6 °C 29.9 in /  1011.1 hPa WSW 11 mph /  17.7 km/h 17 mph /  27.4 km/h 88 % 0.02 in /  0.5 mm
11:32 45.7 °F /  7.6 °C 42.3 °F /  5.7 °C 29.9 in /  1011.1 hPa South 13 mph /  20.9 km/h 21 mph /  33.8 km/h 88 % 0.02 in /  0.5 mm
11:37 45.9 °F /  7.7 °C 42.8 °F /  6.0 °C 29.9 in /  1011.1 hPa SW 10 mph /  16.1 km/h 22 mph /  35.4 km/h 89 % 0.02 in /  0.5 mm
11:42 46 °F /  7.8 °C 43 °F /  6.1 °C 29.9 in /  1011.1 hPa SW 12 mph /  19.3 km/h 22 mph /  35.4 km/h 89 % 0.02 in /  0.5 mm
11:47 46 °F /  7.8 °C 42.4 °F /  5.8 °C 29.8 in /  1010.7 hPa SW 11 mph /  17.7 km/h 24 mph /  38.6 km/h 87 % 0.02 in /  0.5 mm
11:52 46 °F /  7.8 °C 42.4 °F /  5.8 °C 29.8 in /  1010.7 hPa SW 12 mph /  19.3 km/h 24 mph /  38.6 km/h 87 % 0.01 in /  0.3 mm
11:57 46 °F /  7.8 °C 42.6 °F /  5.9 °C 29.8 in /  1010.7 hPa SW 14 mph /  22.5 km/h 24 mph /  38.6 km/h 88 % 0.01 in /  0.3 mm
12:02 45.9 °F /  7.7 °C 42.8 °F /  6.0 °C 29.9 in /  1011.1 hPa SW 11 mph /  17.7 km/h 24 mph /  38.6 km/h 89 % 0.01 in /  0.3 mm
12:07 45.9 °F /  7.7 °C 42.4 °F /  5.8 °C 29.8 in /  1010.7 hPa SW 18 mph /  29.0 km/h 24 mph /  38.6 km/h 88 % 0.01 in /  0.3 mm
12:12 45.7 °F /  7.6 °C 42.6 °F /  5.9 °C 29.8 in /  1010.4 hPa SSW 18 mph /  29.0 km/h 24 mph /  38.6 km/h 89 % 0.01 in /  0.3 mm
12:17 45.5 °F /  7.5 °C 42.8 °F /  6.0 °C 29.8 in /  1010.7 hPa SW 13 mph /  20.9 km/h 24 mph /  38.6 km/h 90 % 0.01 in /  0.3 mm
12:22 45.3 °F /  7.4 °C 42.6 °F /  5.9 °C 29.8 in /  1010.4 hPa SW 16 mph /  25.7 km/h 23 mph /  37.0 km/h 90 % 0.01 in /  0.3 mm
12:27 45.3 °F /  7.4 °C 42.6 °F /  5.9 °C 29.8 in /  1010.4 hPa SSW 17 mph /  27.4 km/h 21 mph /  33.8 km/h 90 % 0 in /  0.0 mm
12:32 45.1 °F /  7.3 °C 42.6 °F /  5.9 °C 29.8 in /  1010.4 hPa SW 20 mph /  32.2 km/h 21 mph /  33.8 km/h 91 % 0 in /  0.0 mm
12:37 44.8 °F /  7.1 °C 42.6 °F /  5.9 °C 29.8 in /  1010.4 hPa SSW 16 mph /  25.7 km/h 24 mph /  38.6 km/h 92 % 0 in /  0.0 mm
12:42 44.6 °F /  7.0 °C 42.6 °F /  5.9 °C 29.8 in /  1010.4 hPa SSW 14 mph /  22.5 km/h 25 mph /  40.2 km/h 93 % 0 in /  0.0 mm
12:47 44.4 °F /  6.9 °C 42.8 °F /  6.0 °C 29.8 in /  1010.4 hPa SW 7 mph /  11.3 km/h 25 mph /  40.2 km/h 94 % 0 in /  0.0 mm
12:52 44.4 °F /  6.9 °C 42.8 °F /  6.0 °C 29.8 in /  1010.4 hPa SSW 12 mph /  19.3 km/h 25 mph /  40.2 km/h 94 % 0 in /  0.0 mm
12:57 44.4 °F /  6.9 °C 42.8 °F /  6.0 °C 29.8 in /  1010.4 hPa SW 13 mph /  20.9 km/h 20 mph /  32.2 km/h 94 % 0.01 in /  0.3 mm
13:02 44.2 °F /  6.8 °C 42.6 °F /  5.9 °C 29.8 in /  1010.4 hPa South 8 mph /  12.9 km/h 20 mph /  32.2 km/h 94 % 0.02 in /  0.5 mm
13:12 44.4 °F /  6.9 °C 43.2 °F /  6.2 °C 29.8 in /  1010.0 hPa SSW 12 mph /  19.3 km/h 15 mph /  24.1 km/h 95 % 0.02 in /  0.5 mm
13:17 44.4 °F /  6.9 °C 43.2 °F /  6.2 °C 29.8 in /  1010.0 hPa South 7 mph /  11.3 km/h 15 mph /  24.1 km/h 95 % 0.02 in /  0.5 mm
13:22 44.4 °F /  6.9 °C 42.8 °F /  6.0 °C 29.8 in /  1010.0 hPa SSW 6 mph /  9.7 km/h 15 mph /  24.1 km/h 94 % 0.03 in /  0.8 mm
13:32 44.6 °F /  7.0 °C 43 °F /  6.1 °C 29.8 in /  1009.7 hPa SW 13 mph /  20.9 km/h 15 mph /  24.1 km/h 94 % 0.05 in /  1.3 mm
13:37 44.6 °F /  7.0 °C 43 °F /  6.1 °C 29.8 in /  1009.7 hPa SSW 10 mph /  16.1 km/h 15 mph /  24.1 km/h 94 % 0.05 in /  1.3 mm
13:42 44.8 °F /  7.1 °C 43.2 °F /  6.2 °C 29.8 in /  1009.7 hPa SW 8 mph /  12.9 km/h 13 mph /  20.9 km/h 94 % 0.06 in /  1.5 mm
13:47 44.8 °F /  7.1 °C 43.2 °F /  6.2 °C 29.8 in /  1009.7 hPa SSW 7 mph /  11.3 km/h 16 mph /  25.7 km/h 94 % 0.06 in /  1.5 mm
13:52 44.8 °F /  7.1 °C 43.5 °F /  6.4 °C 29.8 in /  1009.7 hPa SSW 6 mph /  9.7 km/h 16 mph /  25.7 km/h 95 % 0.06 in /  1.5 mm
13:57 44.8 °F /  7.1 °C 43.5 °F /  6.4 °C 29.8 in /  1009.7 hPa South 8 mph /  12.9 km/h 16 mph /  25.7 km/h 95 % 0.07 in /  1.8 mm
14:02 45 °F /  7.2 °C 43.7 °F /  6.5 °C 29.8 in /  1009.4 hPa SSW 6 mph /  9.7 km/h 13 mph /  20.9 km/h 95 % 0.08 in /  2.0 mm
14:07 45 °F /  7.2 °C 43.7 °F /  6.5 °C 29.8 in /  1009.4 hPa SSW 6 mph /  9.7 km/h 13 mph /  20.9 km/h 95 % 0.09 in /  2.3 mm
14:12 45.1 °F /  7.3 °C 44.1 °F /  6.7 °C 29.8 in /  1009.4 hPa SSW 6 mph /  9.7 km/h 13 mph /  20.9 km/h 96 % 0.09 in /  2.3 mm
14:17 45.1 °F /  7.3 °C 44.1 °F /  6.7 °C 29.8 in /  1009.0 hPa SSW 10 mph /  16.1 km/h 13 mph /  20.9 km/h 96 % 0.09 in /  2.3 mm
14:22 45.5 °F /  7.5 °C 44.4 °F /  6.9 °C 29.8 in /  1009.0 hPa South 12 mph /  19.3 km/h 15 mph /  24.1 km/h 96 % 0.09 in /  2.3 mm
14:27 45.9 °F /  7.7 °C 44.8 °F /  7.1 °C 29.8 in /  1009.0 hPa SSW 7 mph /  11.3 km/h 15 mph /  24.1 km/h 96 % 0.09 in /  2.3 mm
14:32 46 °F /  7.8 °C 45 °F /  7.2 °C 29.8 in /  1008.7 hPa SSW 13 mph /  20.9 km/h 17 mph /  27.4 km/h 96 % 0.09 in /  2.3 mm
14:37 46.2 °F /  7.9 °C 45.1 °F /  7.3 °C 29.8 in /  1008.7 hPa SSW 13 mph /  20.9 km/h 17 mph /  27.4 km/h 96 % 0.09 in /  2.3 mm
14:42 46.6 °F /  8.1 °C 45.5 °F /  7.5 °C 29.8 in /  1008.7 hPa SW 12 mph /  19.3 km/h 17 mph /  27.4 km/h 96 % 0.1 in /  2.5 mm
14:47 46.6 °F /  8.1 °C 45.5 °F /  7.5 °C 29.8 in /  1008.7 hPa SSW 12 mph /  19.3 km/h 18 mph /  29.0 km/h 96 % 0.09 in /  2.3 mm
14:52 46.8 °F /  8.2 °C 45.7 °F /  7.6 °C 29.8 in /  1008.7 hPa SW 11 mph /  17.7 km/h 18 mph /  29.0 km/h 96 % 0.09 in /  2.3 mm
14:57 46.8 °F /  8.2 °C 45.7 °F /  7.6 °C 29.8 in /  1008.7 hPa SW 12 mph /  19.3 km/h 18 mph /  29.0 km/h 96 % 0.09 in /  2.3 mm
15:02 46.8 °F /  8.2 °C 45.7 °F /  7.6 °C 29.8 in /  1008.7 hPa SSW 12 mph /  19.3 km/h 18 mph /  29.0 km/h 96 % 0.09 in /  2.3 mm
15:07 46.9 °F /  8.3 °C 45.9 °F /  7.7 °C 29.8 in /  1008.4 hPa WSW 8 mph /  12.9 km/h 17 mph /  27.4 km/h 96 % 0.09 in /  2.3 mm
15:12 47.1 °F /  8.4 °C 46 °F /  7.8 °C 29.8 in /  1008.7 hPa SW 9 mph /  14.5 km/h 18 mph /  29.0 km/h 96 % 0.08 in /  2.0 mm
15:17 47.3 °F /  8.5 °C 46.2 °F /  7.9 °C 29.8 in /  1008.4 hPa SW 16 mph /  25.7 km/h 18 mph /  29.0 km/h 96 % 0.07 in /  1.8 mm
15:22 47.7 °F /  8.7 °C 46.6 °F /  8.1 °C 29.8 in /  1008.4 hPa SW 8 mph /  12.9 km/h 18 mph /  29.0 km/h 96 % 0.07 in /  1.8 mm
15:32 47.8 °F /  8.8 °C 46.4 °F /  8.0 °C 29.8 in /  1008.4 hPa SW 11 mph /  17.7 km/h 21 mph /  33.8 km/h 95 % 0.07 in /  1.8 mm
15:37 48 °F /  8.9 °C 46.6 °F /  8.1 °C 29.8 in /  1008.4 hPa SSW 11 mph /  17.7 km/h 21 mph /  33.8 km/h 95 % 0.07 in /  1.8 mm
15:42 48 °F /  8.9 °C 46.6 °F /  8.1 °C 29.8 in /  1008.4 hPa SSW 15 mph /  24.1 km/h 19 mph /  30.6 km/h 95 % 0.07 in /  1.8 mm
15:52 48.4 °F /  9.1 °C 46.9 °F /  8.3 °C 29.8 in /  1008.4 hPa SW 13 mph /  20.9 km/h 19 mph /  30.6 km/h 95 % 0.06 in /  1.5 mm
15:57 48.6 °F /  9.2 °C 47.1 °F /  8.4 °C 29.8 in /  1008.4 hPa SW 12 mph /  19.3 km/h 23 mph /  37.0 km/h 95 % 0.07 in /  1.8 mm
16:02 48.7 °F /  9.3 °C 47.3 °F /  8.5 °C 29.8 in /  1008.4 hPa WSW 9 mph /  14.5 km/h 23 mph /  37.0 km/h 95 % 0.06 in /  1.5 mm
16:12 49.3 °F /  9.6 °C 47.8 °F /  8.8 °C 29.8 in /  1008.4 hPa SW 13 mph /  20.9 km/h 19 mph /  30.6 km/h 95 % 0.06 in /  1.5 mm
16:17 49.3 °F /  9.6 °C 47.8 °F /  8.8 °C 29.8 in /  1008.4 hPa SW 5 mph /  8.0 km/h 19 mph /  30.6 km/h 95 % 0.05 in /  1.3 mm
16:22 49.5 °F /  9.7 °C 48 °F /  8.9 °C 29.8 in /  1008.4 hPa SW 15 mph /  24.1 km/h 19 mph /  30.6 km/h 95 % 0.06 in /  1.5 mm
16:32 49.8 °F /  9.9 °C 48.4 °F /  9.1 °C 29.8 in /  1008.4 hPa SW 8 mph /  12.9 km/h 20 mph /  32.2 km/h 95 % 0.05 in /  1.3 mm
16:37 50 °F /  10.0 °C 48.4 °F /  9.1 °C 29.8 in /  1008.4 hPa SSW 8 mph /  12.9 km/h 25 mph /  40.2 km/h 94 % 0.06 in /  1.5 mm
16:42 50.2 °F /  10.1 °C 48.6 °F /  9.2 °C 29.8 in /  1008.4 hPa SW 14 mph /  22.5 km/h 25 mph /  40.2 km/h 94 % 0.06 in /  1.5 mm
16:52 50.4 °F /  10.2 °C 48.7 °F /  9.3 °C 29.8 in /  1008.4 hPa WSW 11 mph /  17.7 km/h 22 mph /  35.4 km/h 94 % 0.05 in /  1.3 mm
16:57 50.4 °F /  10.2 °C 48.7 °F /  9.3 °C 29.8 in /  1008.4 hPa SW 7 mph /  11.3 km/h 22 mph /  35.4 km/h 94 % 0.05 in /  1.3 mm
17:02 50.5 °F /  10.3 °C 48.9 °F /  9.4 °C 29.8 in /  1008.4 hPa West 12 mph /  19.3 km/h 20 mph /  32.2 km/h 94 % 0.05 in /  1.3 mm
17:12 50.5 °F /  10.3 °C 48.9 °F /  9.4 °C 29.8 in /  1008.4 hPa SW 14 mph /  22.5 km/h 20 mph /  32.2 km/h 94 % 0.05 in /  1.3 mm
17:17 50.7 °F /  10.4 °C 49.1 °F /  9.5 °C 29.8 in /  1008.4 hPa SW 16 mph /  25.7 km/h 18 mph /  29.0 km/h 94 % 0.04 in /  1.0 mm
17:22 50.7 °F /  10.4 °C 49.1 °F /  9.5 °C 29.8 in /  1008.4 hPa WSW 8 mph /  12.9 km/h 23 mph /  37.0 km/h 94 % 0.03 in /  0.8 mm
17:27 50.7 °F /  10.4 °C 49.1 °F /  9.5 °C 29.8 in /  1008.4 hPa SW 13 mph /  20.9 km/h 23 mph /  37.0 km/h 94 % 0.03 in /  0.8 mm
17:32 50.9 °F /  10.5 °C 49.3 °F /  9.6 °C 29.8 in /  1008.4 hPa WSW 8 mph /  12.9 km/h 23 mph /  37.0 km/h 94 % 0.03 in /  0.8 mm
17:37 51.1 °F /  10.6 °C 49.5 °F /  9.7 °C 29.8 in /  1008.4 hPa SSW 13 mph /  20.9 km/h 22 mph /  35.4 km/h 94 % 0.03 in /  0.8 mm
17:42 51.3 °F /  10.7 °C 49.3 °F /  9.6 °C 29.8 in /  1008.4 hPa SW 11 mph /  17.7 km/h 21 mph /  33.8 km/h 93 % 0.02 in /  0.5 mm
17:52 51.3 °F /  10.7 °C 49.3 °F /  9.6 °C 29.8 in /  1008.4 hPa SW 12 mph /  19.3 km/h 24 mph /  38.6 km/h 93 % 0.02 in /  0.5 mm
17:57 51.4 °F /  10.8 °C 49.3 °F /  9.6 °C 29.8 in /  1008.4 hPa WSW 8 mph /  12.9 km/h 24 mph /  38.6 km/h 92 % 0.02 in /  0.5 mm
18:02 51.4 °F /  10.8 °C 49.3 °F /  9.6 °C 29.8 in /  1008.4 hPa WSW 7 mph /  11.3 km/h 20 mph /  32.2 km/h 92 % 0.02 in /  0.5 mm
18:12 51.3 °F /  10.7 °C 49.1 °F /  9.5 °C 29.8 in /  1008.4 hPa WSW 21 mph /  33.8 km/h 24 mph /  38.6 km/h 92 % 0.01 in /  0.3 mm
18:17 51.3 °F /  10.7 °C 49.1 °F /  9.5 °C 29.8 in /  1008.4 hPa SW 9 mph /  14.5 km/h 24 mph /  38.6 km/h 92 % 0.01 in /  0.3 mm
18:22 51.3 °F /  10.7 °C 49.1 °F /  9.5 °C 29.8 in /  1008.7 hPa WSW 13 mph /  20.9 km/h 24 mph /  38.6 km/h 92 % 0.01 in /  0.3 mm
18:32 51.3 °F /  10.7 °C 49.1 °F /  9.5 °C 29.8 in /  1008.7 hPa SW 14 mph /  22.5 km/h 23 mph /  37.0 km/h 92 % 0 in /  0.0 mm
18:37 51.1 °F /  10.6 °C 48.9 °F /  9.4 °C 29.8 in /  1008.7 hPa WSW 11 mph /  17.7 km/h 23 mph /  37.0 km/h 92 % 0 in /  0.0 mm
18:42 51.1 °F /  10.6 °C 48.9 °F /  9.4 °C 29.8 in /  1008.7 hPa SW 7 mph /  11.3 km/h 26 mph /  41.8 km/h 92 % 0.01 in /  0.3 mm
18:47 50.9 °F /  10.5 °C 48.7 °F /  9.3 °C 29.8 in /  1008.7 hPa SW 15 mph /  24.1 km/h 26 mph /  41.8 km/h 92 % 0.01 in /  0.3 mm
18:52 51.1 °F /  10.6 °C 48.9 °F /  9.4 °C 29.8 in /  1008.7 hPa SW 11 mph /  17.7 km/h 30 mph /  48.3 km/h 92 % 0.01 in /  0.3 mm
18:57 50.9 °F /  10.5 °C 48.7 °F /  9.3 °C 29.8 in /  1008.7 hPa SW 12 mph /  19.3 km/h 30 mph /  48.3 km/h 92 % 0.01 in /  0.3 mm
19:02 51.1 °F /  10.6 °C 48.9 °F /  9.4 °C 29.8 in /  1008.7 hPa WSW 19 mph /  30.6 km/h 30 mph /  48.3 km/h 92 % 0.01 in /  0.3 mm
19:12 51.1 °F /  10.6 °C 48.9 °F /  9.4 °C 29.8 in /  1008.7 hPa WSW 8 mph /  12.9 km/h 26 mph /  41.8 km/h 92 % 0.01 in /  0.3 mm
19:17 50.9 °F /  10.5 °C 48.7 °F /  9.3 °C 29.8 in /  1008.7 hPa SW 12 mph /  19.3 km/h 26 mph /  41.8 km/h 92 % 0.01 in /  0.3 mm
19:22 50.9 °F /  10.5 °C 48.7 °F /  9.3 °C 29.8 in /  1009.0 hPa SSW 7 mph /  11.3 km/h 26 mph /  41.8 km/h 92 % 0.01 in /  0.3 mm
19:27 50.7 °F /  10.4 °C 48.6 °F /  9.2 °C 29.8 in /  1009.0 hPa SW 23 mph /  37.0 km/h 25 mph /  40.2 km/h 92 % 0.01 in /  0.3 mm
19:37 50.5 °F /  10.3 °C 48.6 °F /  9.2 °C 29.8 in /  1009.0 hPa WSW 17 mph /  27.4 km/h 27 mph /  43.4 km/h 93 % 0.01 in /  0.3 mm
19:42 50.5 °F /  10.3 °C 48.6 °F /  9.2 °C 29.8 in /  1009.4 hPa SW 17 mph /  27.4 km/h 27 mph /  43.4 km/h 93 % 0.01 in /  0.3 mm
19:47 50.4 °F /  10.2 °C 48.4 °F /  9.1 °C 29.8 in /  1009.4 hPa WSW 14 mph /  22.5 km/h 27 mph /  43.4 km/h 93 % 0.01 in /  0.3 mm
19:52 50.4 °F /  10.2 °C 48.7 °F /  9.3 °C 29.8 in /  1009.4 hPa SW 14 mph /  22.5 km/h 27 mph /  43.4 km/h 94 % 0.01 in /  0.3 mm
19:57 50.4 °F /  10.2 °C 48.7 °F /  9.3 °C 29.8 in /  1009.4 hPa WSW 14 mph /  22.5 km/h 27 mph /  43.4 km/h 94 % 0.01 in /  0.3 mm
20:02 50.4 °F /  10.2 °C 48.4 °F /  9.1 °C 29.8 in /  1009.4 hPa WSW 30 mph /  48.3 km/h 30 mph /  48.3 km/h 93 % 0.01 in /  0.3 mm
20:07 50.4 °F /  10.2 °C 48.4 °F /  9.1 °C 29.8 in /  1009.4 hPa SW 14 mph /  22.5 km/h 30 mph /  48.3 km/h 93 % 0.02 in /  0.5 mm
20:12 50.4 °F /  10.2 °C 48.4 °F /  9.1 °C 29.8 in /  1009.4 hPa SW 12 mph /  19.3 km/h 30 mph /  48.3 km/h 93 % 0.02 in /  0.5 mm
20:17 50.4 °F /  10.2 °C 48.4 °F /  9.1 °C 29.8 in /  1009.4 hPa WSW 17 mph /  27.4 km/h 30 mph /  48.3 km/h 93 % 0.02 in /  0.5 mm
20:22 50.5 °F /  10.3 °C 48.4 °F /  9.1 °C 29.8 in /  1009.4 hPa WSW 22 mph /  35.4 km/h 25 mph /  40.2 km/h 92 % 0.02 in /  0.5 mm
20:32 50.5 °F /  10.3 °C 48.4 °F /  9.1 °C 29.8 in /  1009.4 hPa WSW 23 mph /  37.0 km/h 26 mph /  41.8 km/h 92 % 0.02 in /  0.5 mm
20:37 50.5 °F /  10.3 °C 48.4 °F /  9.1 °C 29.8 in /  1009.4 hPa WSW 15 mph /  24.1 km/h 28 mph /  45.1 km/h 92 % 0.03 in /  0.8 mm
20:42 50.5 °F /  10.3 °C 48.4 °F /  9.1 °C 29.8 in /  1009.4 hPa WSW 22 mph /  35.4 km/h 28 mph /  45.1 km/h 92 % 0.02 in /  0.5 mm
20:52 50.4 °F /  10.2 °C 48.2 °F /  9.0 °C 29.8 in /  1009.7 hPa SW 14 mph /  22.5 km/h 26 mph /  41.8 km/h 92 % 0.03 in /  0.8 mm
20:57 50.4 °F /  10.2 °C 48.2 °F /  9.0 °C 29.8 in /  1009.7 hPa WSW 9 mph /  14.5 km/h 26 mph /  41.8 km/h 92 % 0.03 in /  0.8 mm
21:02 50.2 °F /  10.1 °C 48 °F /  8.9 °C 29.8 in /  1009.7 hPa WSW 20 mph /  32.2 km/h 24 mph /  38.6 km/h 92 % 0.02 in /  0.5 mm
21:07 50.2 °F /  10.1 °C 48 °F /  8.9 °C 29.8 in /  1009.7 hPa WSW 16 mph /  25.7 km/h 31 mph /  49.9 km/h 92 % 0.04 in /  1.0 mm
21:12 50.2 °F /  10.1 °C 48 °F /  8.9 °C 29.8 in /  1009.7 hPa SW 19 mph /  30.6 km/h 31 mph /  49.9 km/h 92 % 0.04 in /  1.0 mm
21:17 50.2 °F /  10.1 °C 48 °F /  8.9 °C 29.8 in /  1009.7 hPa WSW 17 mph /  27.4 km/h 31 mph /  49.9 km/h 92 % 0.05 in /  1.3 mm
21:22 50.2 °F /  10.1 °C 48 °F /  8.9 °C 29.8 in /  1010.0 hPa SW 20 mph /  32.2 km/h 26 mph /  41.8 km/h 92 % 0.05 in /  1.3 mm
21:32 49.8 °F /  9.9 °C 47.8 °F /  8.8 °C 29.8 in /  1010.0 hPa SSW 5 mph /  8.0 km/h 29 mph /  46.7 km/h 93 % 0.04 in /  1.0 mm
21:37 49.8 °F /  9.9 °C 47.8 °F /  8.8 °C 29.8 in /  1010.0 hPa SW 10 mph /  16.1 km/h 25 mph /  40.2 km/h 93 % 0.05 in /  1.3 mm
21:42 49.8 °F /  9.9 °C 47.8 °F /  8.8 °C 29.8 in /  1010.0 hPa SW 15 mph /  24.1 km/h 26 mph /  41.8 km/h 93 % 0.05 in /  1.3 mm
21:47 49.8 °F /  9.9 °C 47.8 °F /  8.8 °C 29.8 in /  1010.0 hPa SSW 11 mph /  17.7 km/h 26 mph /  41.8 km/h 93 % 0.04 in /  1.0 mm
21:52 49.6 °F /  9.8 °C 48 °F /  8.9 °C 29.8 in /  1010.0 hPa WSW 9 mph /  14.5 km/h 26 mph /  41.8 km/h 94 % 0.04 in /  1.0 mm
21:57 49.6 °F /  9.8 °C 48 °F /  8.9 °C 29.8 in /  1010.0 hPa WSW 13 mph /  20.9 km/h 21 mph /  33.8 km/h 94 % 0.04 in /  1.0 mm
22:02 49.6 °F /  9.8 °C 48 °F /  8.9 °C 29.8 in /  1010.4 hPa WSW 13 mph /  20.9 km/h 21 mph /  33.8 km/h 94 % 0.03 in /  0.8 mm
22:07 49.6 °F /  9.8 °C 48 °F /  8.9 °C 29.8 in /  1010.4 hPa WSW 19 mph /  30.6 km/h 21 mph /  33.8 km/h 94 % 0.02 in /  0.5 mm
22:12 49.6 °F /  9.8 °C 48.2 °F /  9.0 °C 29.8 in /  1010.4 hPa WNW 13 mph /  20.9 km/h 24 mph /  38.6 km/h 95 % 0.02 in /  0.5 mm
22:17 49.6 °F /  9.8 °C 48 °F /  8.9 °C 29.8 in /  1010.4 hPa WSW 9 mph /  14.5 km/h 25 mph /  40.2 km/h 94 % 0.02 in /  0.5 mm
22:22 49.6 °F /  9.8 °C 48 °F /  8.9 °C 29.8 in /  1010.7 hPa WSW 12 mph /  19.3 km/h 26 mph /  41.8 km/h 94 % 0.02 in /  0.5 mm
22:32 49.8 °F /  9.9 °C 48.2 °F /  9.0 °C 29.8 in /  1010.7 hPa WSW 22 mph /  35.4 km/h 26 mph /  41.8 km/h 94 % 0.02 in /  0.5 mm
22:37 50 °F /  10.0 °C 48.4 °F /  9.1 °C 29.8 in /  1010.7 hPa West 12 mph /  19.3 km/h 26 mph /  41.8 km/h 94 % 0.02 in /  0.5 mm
22:42 50 °F /  10.0 °C 48.4 °F /  9.1 °C 29.8 in /  1010.7 hPa WSW 9 mph /  14.5 km/h 26 mph /  41.8 km/h 94 % 0.02 in /  0.5 mm
22:47 50 °F /  10.0 °C 48.4 °F /  9.1 °C 29.9 in /  1011.1 hPa SW 8 mph /  12.9 km/h 26 mph /  41.8 km/h 94 % 0.02 in /  0.5 mm
22:52 50.2 °F /  10.1 °C 48.2 °F /  9.0 °C 29.9 in /  1011.1 hPa West 10 mph /  16.1 km/h 24 mph /  38.6 km/h 93 % 0.02 in /  0.5 mm
23:02 50 °F /  10.0 °C 48.4 °F /  9.1 °C 29.9 in /  1011.1 hPa WSW 19 mph /  30.6 km/h 22 mph /  35.4 km/h 94 % 0.02 in /  0.5 mm
23:07 50.2 °F /  10.1 °C 48.2 °F /  9.0 °C 29.9 in /  1011.1 hPa WSW 17 mph /  27.4 km/h 27 mph /  43.4 km/h 93 % 0.02 in /  0.5 mm
23:12 50 °F /  10.0 °C 48.4 °F /  9.1 °C 29.9 in /  1011.1 hPa SW 8 mph /  12.9 km/h 27 mph /  43.4 km/h 94 % 0.02 in /  0.5 mm
23:17 50 °F /  10.0 °C 48.4 °F /  9.1 °C 29.9 in /  1011.1 hPa South 6 mph /  9.7 km/h 27 mph /  43.4 km/h 94 % 0.02 in /  0.5 mm
23:22 50 °F /  10.0 °C 48.4 °F /  9.1 °C 29.9 in /  1011.1 hPa WSW 14 mph /  22.5 km/h 25 mph /  40.2 km/h 94 % 0.02 in /  0.5 mm
23:32 50 °F /  10.0 °C 48.4 °F /  9.1 °C 29.9 in /  1011.1 hPa SW 16 mph /  25.7 km/h 24 mph /  38.6 km/h 94 % 0.02 in /  0.5 mm
23:37 49.8 °F /  9.9 °C 48.2 °F /  9.0 °C 29.9 in /  1011.4 hPa SW 8 mph /  12.9 km/h 24 mph /  38.6 km/h 94 % 0.03 in /  0.8 mm
23:42 49.8 °F /  9.9 °C 48.2 °F /  9.0 °C 29.9 in /  1011.4 hPa SW 13 mph /  20.9 km/h 24 mph /  38.6 km/h 94 % 0.03 in /  0.8 mm
23:47 49.8 °F /  9.9 °C 48.2 °F /  9.0 °C 29.9 in /  1011.4 hPa WSW 13 mph /  20.9 km/h 21 mph /  33.8 km/h 94 % 0.03 in /  0.8 mm
23:52 49.8 °F /  9.9 °C 48.2 °F /  9.0 °C 29.9 in /  1011.4 hPa WSW 19 mph /  30.6 km/h 20 mph /  32.2 km/h 94 % 0.03 in /  0.8 mm
Meteo18
Compliments of Weather Underground - 4 mb

Script developed by  Jim McMurry - jmcmurry@mwt.net Adapted for the template by  Wim van der Kuil - Leuven-Template.eu

You find our weather info also at:

European Weather Network

Weather Underground

Equipment we use:

Weather-station
Davis Vue

Weather-program
Meteohub

Weather-server
Raspberry PI 2 B+

Provider
1 and 1

Davis Vue

Meteohub

Raspberry PI 2 B+

1 and 1